.
WxDataArchive / Data Records for 2014-09-20
2014-09-19 September 2014 2014-09-21

Data Records for Saturday, 20 September 2014

Time	Temp	Chill	HIndex	Humid	Dewpt	 Wind 	HiWind	WindDir	Rain 	Barom
-----	----	-----	------	-----	-----	------	------	-------	-----	-----
00:00	51.9	51.9	51.9	87	48.2	0	0	---	0.00	30.033 
00:05	51.9	51.9	51.9	87	48.2	0	0	---	0.00	30.033 
00:10	51.7	51.7	51.7	87	48.0	0	0	---	0.00	30.033 
00:15	51.6	51.6	51.6	87	47.9	0	0	---	0.00	30.025 
00:20	51.6	51.6	51.6	87	47.9	0	0	---	0.00	30.025 
00:25	51.4	51.4	51.4	87	47.7	0	0	---	0.00	30.025 
00:30	51.4	51.4	51.4	88	48.0	0	0	---	0.00	30.023 
00:35	51.3	51.3	51.3	88	47.9	0	0	---	0.00	30.023 
00:40	51.3	51.3	51.3	88	47.9	0	0	---	0.00	30.023 
00:45	51.1	51.1	51.1	88	47.7	0	0	---	0.00	30.021 
00:50	51.0	51.0	51.0	88	47.6	0	0	---	0.00	30.021 
00:55	50.8	50.8	50.8	88	47.4	0	0	---	0.00	30.021 
01:00	50.8	50.8	50.8	89	47.7	0	0	---	0.00	30.009 
01:05	50.8	50.8	50.8	89	47.7	0	0	---	0.00	30.009 
01:10	50.7	50.7	50.7	89	47.6	0	0	---	0.00	30.009 
01:15	50.8	50.8	50.8	89	47.7	0	0	---	0.00	30.003 
01:20	51.0	51.0	51.0	89	47.9	0	0	---	0.00	30.003 
01:25	51.0	51.0	51.0	89	47.9	0	0	---	0.00	30.003 
01:30	51.0	51.0	51.0	89	47.9	0	0	---	0.00	29.996 
01:35	51.0	51.0	51.0	89	47.9	0	0	---	0.00	29.996 
01:40	51.0	51.0	51.0	89	47.9	0	0	---	0.00	29.996 
01:45	51.0	51.0	51.0	89	47.9	0	0	---	0.00	29.989 
01:50	51.1	51.1	51.1	89	48.0	0	0	---	0.00	29.989 
01:55	51.1	51.1	51.1	89	48.0	0	0	---	0.00	29.989 
02:00	51.1	51.1	51.1	89	48.0	0	0	---	0.00	29.990 
02:05	51.1	51.1	51.1	89	48.0	0	0	---	0.00	29.990 
02:10	51.3	51.3	51.3	89	48.2	0	0	---	0.00	29.990 
02:15	51.4	51.4	51.4	89	48.3	0	0	---	0.00	29.994 
02:20	51.4	51.4	51.4	89	48.3	0	0	---	0.00	29.994 
02:25	51.6	51.6	51.6	88	48.2	0	0	---	0.00	29.994 
02:30	51.6	51.6	51.6	88	48.2	0	0	---	0.00	29.987 
02:35	51.7	51.7	51.7	88	48.3	0	0	---	0.00	29.987 
02:40	51.7	51.7	51.7	88	48.3	0	0	---	0.00	29.987 
02:45	51.7	51.7	51.7	88	48.3	0	0	---	0.00	29.987 
02:50	51.7	51.7	51.7	88	48.3	0	0	---	0.00	29.987 
02:55	51.7	51.7	51.7	88	48.3	0	0	---	0.00	29.987 
03:00	51.7	51.7	51.7	87	48.0	0	0	---	0.00	29.983 
03:05	51.9	51.9	51.9	87	48.2	0	0	---	0.00	29.983 
03:10	52.2	52.2	52.2	86	48.1	0	0	---	0.00	29.983 
03:15	52.5	52.5	52.5	86	48.4	0	0	---	0.00	29.972 
03:20	52.8	52.8	52.8	85	48.4	0	0	---	0.00	29.972 
03:25	52.9	52.9	52.9	85	48.5	0	0	---	0.00	29.972 
03:30	53.1	53.1	53.1	85	48.7	0	0	---	0.00	29.971 
03:35	53.2	53.2	53.2	84	48.5	0	0	---	0.00	29.971 
03:40	53.3	53.3	53.3	84	48.6	0	0	---	0.00	29.971 
03:45	53.3	53.3	53.3	84	48.6	0	0	---	0.00	29.975 
03:50	53.3	53.3	53.3	84	48.6	0	0	---	0.00	29.975 
03:55	53.5	53.5	53.5	84	48.8	0	0	---	0.00	29.975 
04:00	53.3	53.3	53.3	84	48.6	0	0	---	0.00	29.980 
04:05	53.3	53.3	53.3	84	48.6	0	0	---	0.00	29.980 
04:10	53.2	53.2	53.2	84	48.5	0	0	---	0.00	29.980 
04:15	53.2	53.2	53.2	84	48.5	0	0	---	0.00	29.978 
04:20	53.2	53.2	53.2	84	48.5	0	0	---	0.00	29.978 
04:25	53.2	53.2	53.2	84	48.5	0	0	---	0.00	29.978 
04:30	53.2	53.2	53.2	84	48.5	0	0	---	0.00	29.975 
04:35	53.2	53.2	53.2	84	48.5	0	0	---	0.00	29.975 
04:40	53.2	53.2	53.2	84	48.5	0	0	---	0.00	29.975 
04:45	53.1	53.1	53.1	84	48.4	0	0	---	0.00	29.978 
04:50	53.1	53.1	53.1	84	48.4	0	0	---	0.00	29.978 
04:55	53.1	53.1	53.1	84	48.4	0	0	---	0.00	29.978 
05:00	52.9	52.9	52.9	85	48.5	0	0	---	0.00	29.976 
05:05	52.9	52.9	52.9	85	48.5	0	0	---	0.00	29.976 
05:10	52.9	52.9	52.9	85	48.5	0	0	---	0.00	29.976 
05:15	52.9	52.9	52.9	85	48.5	0	0	---	0.00	29.981 
05:20	53.1	53.1	53.1	85	48.7	0	0	---	0.00	29.981 
05:25	53.1	53.1	53.1	86	49.0	0	0	---	0.00	29.981 
05:30	53.1	53.1	53.1	86	49.0	0	0	---	0.00	29.984 
05:35	53.1	53.1	53.1	86	49.0	0	0	---	0.00	29.984 
05:40	53.1	53.1	53.1	86	49.0	0	0	---	0.00	29.984 
05:45	52.9	52.9	52.9	86	48.8	0	0	---	0.00	29.983 
05:50	52.8	52.8	52.8	87	49.0	0	1	90	0.00	29.983 
05:55	52.8	52.8	52.8	87	49.0	0	0	---	0.00	29.983 
06:00	52.9	52.9	52.9	87	49.1	0	0	---	0.00	29.985 
06:05	52.9	52.9	52.9	87	49.1	0	0	---	0.00	29.985 
06:10	53.1	53.1	53.1	87	49.3	0	0	---	0.00	29.985 
06:15	53.2	53.2	53.2	87	49.4	0	0	---	0.00	29.990 
06:20	53.2	53.2	53.2	87	49.4	0	0	---	0.00	29.990 
06:25	53.3	53.3	53.3	87	49.5	0	0	---	0.00	29.990 
06:30	53.3	53.3	53.3	87	49.5	0	0	---	0.00	29.990 
06:35	53.3	53.3	53.3	87	49.5	0	0	---	0.00	29.990 
06:40	53.3	53.3	53.3	87	49.5	0	0	---	0.00	29.990 
06:45	53.2	53.2	53.2	87	49.4	0	0	---	0.00	29.993 
06:50	53.2	53.2	53.2	87	49.4	0	0	---	0.00	29.993 
06:55	53.2	53.2	53.2	88	49.7	0	0	---	0.00	29.993 
07:00	53.1	53.1	53.1	88	49.6	0	0	---	0.00	29.992 
07:05	52.9	52.9	52.9	88	49.4	0	0	---	0.00	29.992 
07:10	52.9	52.9	52.9	88	49.4	0	0	---	0.00	29.992 
07:15	52.9	52.9	52.9	88	49.4	0	0	---	0.00	29.991 
07:20	52.9	52.9	52.9	88	49.4	0	0	---	0.00	29.991 
07:25	52.9	52.9	52.9	89	49.7	0	0	---	0.00	29.991 
07:30	52.9	52.9	52.9	89	49.7	0	0	---	0.00	29.990 
07:35	52.9	52.9	52.9	89	49.7	0	0	---	0.00	29.990 
07:40	53.1	53.1	53.1	89	49.9	0	0	---	0.00	29.990 
07:45	53.1	53.1	53.1	89	49.9	0	0	---	0.00	29.986 
07:50	53.2	53.2	53.2	89	50.0	0	0	---	0.00	29.986 
07:55	53.3	53.3	53.3	90	50.4	0	0	---	0.00	29.986 
08:00	53.6	53.6	53.6	90	50.7	0	1	90	0.00	29.990 
08:05	54.1	54.1	54.1	90	51.2	0	1	90	0.00	29.990 
08:10	54.7	54.7	54.7	90	51.8	0	1	90	0.00	29.990 
08:15	55.1	55.1	55.1	90	52.2	0	1	90	0.00	29.988 
08:20	55.6	55.6	55.6	89	52.4	0	1	90	0.00	29.988 
08:25	55.9	55.9	55.9	89	52.7	0	1	90	0.00	29.988 
08:30	56.2	56.2	56.2	89	53.0	0	1	90	0.00	29.978 
08:35	56.7	56.7	56.7	88	53.2	0	1	90	0.00	29.978 
08:40	57.0	57.0	57.0	88	53.5	0	1	90	0.00	29.978 
08:45	57.5	57.5	57.5	87	53.7	0	1	90	0.00	29.980 
08:50	58.0	58.0	58.0	86	53.8	0	1	90	0.00	29.980 
08:55	58.3	58.3	58.3	86	54.1	0	1	90	0.00	29.980 
09:00	58.6	58.6	58.6	85	54.1	0	1	90	0.00	29.980 
09:05	59.0	59.0	59.0	85	54.5	0	1	90	0.00	29.980 
09:10	59.5	59.5	59.5	85	55.0	0	1	90	0.00	29.980 
09:15	59.9	59.9	59.9	84	55.0	0	2	90	0.00	29.987 
09:20	60.2	60.2	60.2	83	55.0	0	3	68	0.00	29.987 
09:25	60.7	60.7	60.7	83	55.5	0	1	68	0.00	29.987 
09:30	61.2	61.2	61.2	83	56.0	0	2	68	0.00	29.976 
09:35	61.5	61.5	61.5	82	55.9	0	2	68	0.00	29.976 
09:40	62.0	62.0	62.0	81	56.1	0	2	68	0.00	29.976 
09:45	62.1	62.1	62.1	81	56.2	0	2	68	0.00	30.002 
09:50	62.4	62.4	62.4	80	56.1	0	1	68	0.00	30.002 
09:55	62.7	62.7	62.7	80	56.4	0	2	68	0.00	30.002 
10:00	63.1	63.1	63.1	79	56.5	0	1	68	0.00	29.988 
10:05	63.4	63.4	63.4	79	56.8	0	2	68	0.00	29.988 
10:10	63.7	63.7	63.7	79	57.1	0	2	22	0.00	29.988 
10:15	64.0	64.0	64.0	79	57.4	0	2	338	0.00	29.974 
10:20	64.3	64.3	64.3	78	57.3	0	2	338	0.00	29.974 
10:25	64.7	64.7	64.7	78	57.7	0	2	0	0.00	29.974 
10:30	65.2	65.2	65.2	78	58.2	0	1	0	0.00	29.972 
10:35	65.6	65.6	65.6	77	58.2	0	1	0	0.00	29.972 
10:40	66.3	66.3	66.3	76	58.5	0	3	0	0.00	29.972 
10:45	67.1	67.1	67.1	75	58.9	0	2	270	0.00	29.970 
10:50	67.8	67.8	67.8	74	59.2	0	2	270	0.00	29.970 
10:55	68.4	68.4	68.4	72	59.0	0	3	270	0.00	29.970 
11:00	68.9	68.9	68.9	71	59.1	1	4	270	0.00	29.967 
11:05	69.4	69.4	69.4	70	59.2	1	3	270	0.00	29.967 
11:10	70.1	70.1	70.1	69	59.4	1	3	270	0.00	29.967 
11:15	70.8	70.8	70.8	67	59.3	1	3	270	0.00	29.961 
11:20	71.5	71.5	71.5	68	60.4	1	4	270	0.00	29.961 
11:25	71.8	71.8	71.8	66	59.8	1	3	270	0.00	29.961 
11:30	72.0	72.0	72.0	65	59.6	1	3	270	0.00	29.956 
11:35	72.1	72.1	72.1	65	59.7	0	3	270	0.00	29.956 
11:40	72.3	72.3	72.3	65	59.9	1	4	270	0.00	29.956 
11:45	72.3	72.3	72.3	64	59.4	1	3	270	0.00	29.956 
11:50	72.3	72.3	72.3	63	59.0	1	2	270	0.00	29.956 
11:55	72.3	72.3	72.3	63	59.0	1	4	270	0.00	29.956 
12:00	72.3	72.3	72.3	64	59.4	1	4	270	0.00	29.950 
12:05	72.5	72.5	72.5	64	59.6	0	3	270	0.00	29.950 
12:10	73.0	73.0	73.0	64	60.1	0	2	270	0.00	29.950 
12:15	73.2	73.2	73.2	62	59.4	1	4	270	0.00	29.940 
12:20	73.7	73.7	73.7	62	59.9	1	3	270	0.00	29.940 
12:25	74.0	74.0	74.0	61	59.7	1	3	315	0.00	29.940 
12:30	74.4	74.4	74.4	59	59.1	1	5	270	0.00	29.936 
12:35	74.7	74.7	74.7	59	59.4	1	4	270	0.00	29.936 
12:40	74.9	74.9	74.9	61	60.5	0	2	270	0.00	29.936 
12:45	75.3	75.3	77.5	60	60.4	1	3	270	0.00	29.923 
12:50	75.6	75.6	77.8	59	60.2	1	5	270	0.00	29.923 
12:55	76.1	76.1	78.1	58	60.2	1	5	270	0.00	29.923 
13:00	76.5	76.5	78.4	57	60.1	1	5	270	0.00	29.912 
13:05	76.5	76.5	78.4	57	60.1	1	3	270	0.00	29.912 
13:10	76.7	76.7	78.5	58	60.8	1	4	270	0.00	29.912 
13:15	76.7	76.7	78.5	55	59.3	2	5	270	0.00	29.903 
13:20	76.5	76.5	78.4	58	60.6	1	3	270	0.00	29.903 
13:25	77.0	77.0	78.8	60	62.0	1	6	270	0.00	29.903 
13:30	77.4	77.4	79.1	57	61.0	1	4	270	0.00	29.891 
13:35	77.4	77.4	79.1	57	61.0	1	4	292	0.00	29.891 
13:40	77.4	77.4	79.1	58	61.4	2	4	270	0.00	29.891 
13:45	77.4	77.4	79.1	57	61.0	2	4	270	0.00	29.894 
13:50	77.6	77.6	79.2	57	61.1	1	4	270	0.00	29.894 
13:55	77.6	77.6	79.2	58	61.6	2	5	270	0.00	29.894 
14:00	77.4	77.4	79.1	58	61.4	1	5	248	0.00	29.884 
14:05	77.2	77.2	78.9	58	61.3	1	3	248	0.00	29.884 
14:10	77.0	77.0	78.8	58	61.1	1	4	248	0.00	29.884 
14:15	77.0	77.0	78.8	59	61.6	1	4	292	0.00	29.883 
14:20	77.2	77.2	78.9	60	62.2	1	2	292	0.00	29.883 
14:25	77.6	77.6	79.3	60	62.6	1	4	292	0.00	29.883 
14:30	77.9	77.9	79.5	59	62.4	1	4	292	0.00	29.880 
14:35	78.1	78.1	79.7	59	62.6	1	4	270	0.00	29.880 
14:40	78.5	78.5	80.0	57	62.0	2	4	248	0.00	29.880 
14:45	78.6	78.6	80.2	59	63.1	1	3	248	0.00	29.869 
14:50	78.8	78.8	80.4	59	63.2	1	4	292	0.00	29.869 
14:55	79.0	79.0	80.5	58	62.9	1	4	248	0.00	29.869 
15:00	79.2	79.2	80.7	57	62.6	2	5	68	0.00	29.867 
15:05	79.0	79.0	80.5	58	62.9	2	10	270	0.00	29.867 
15:10	79.2	79.2	80.7	58	63.1	1	4	270	0.00	29.867 
15:15	79.4	79.4	80.9	58	63.3	1	5	270	0.00	29.857 
15:20	79.4	79.4	80.9	57	62.8	1	5	270	0.00	29.857 
15:25	79.4	79.4	80.9	58	63.3	1	3	270	0.00	29.857 
15:30	79.6	79.6	81.1	57	63.0	2	4	270	0.00	29.851 
15:35	79.6	79.6	81.1	57	63.0	1	2	292	0.00	29.851 
15:40	79.6	79.6	80.9	55	62.0	1	4	270	0.00	29.851 
15:45	79.6	79.6	81.0	56	62.5	1	3	270	0.00	29.839 
15:50	79.8	79.8	81.2	56	62.7	1	4	270	0.00	29.839 
15:55	79.8	79.8	81.3	57	63.2	1	5	270	0.00	29.839 
16:00	79.8	79.8	81.1	55	62.2	1	7	270	0.00	29.840 
16:05	79.6	79.6	81.0	56	62.5	1	4	270	0.00	29.840 
16:10	79.4	79.4	80.8	56	62.3	1	7	270	0.00	29.840 
16:15	79.4	79.4	80.8	56	62.3	2	10	270	0.00	29.828 
16:20	79.0	79.0	80.4	56	61.9	1	4	315	0.00	29.828 
16:25	78.6	78.6	80.0	56	61.6	2	5	270	0.00	29.828 
16:30	78.6	78.6	80.1	58	62.6	1	4	270	0.00	29.818 
16:35	78.8	78.8	80.3	58	62.8	0	2	270	0.00	29.818 
16:40	78.8	78.8	80.3	57	62.3	1	5	112	0.00	29.818 
16:45	78.6	78.6	80.0	56	61.6	2	6	248	0.00	29.808 
16:50	78.6	78.6	80.1	57	62.1	1	6	270	0.00	29.808 
16:55	78.8	78.8	80.3	57	62.3	1	3	270	0.00	29.808 
17:00	78.6	78.6	80.1	58	62.6	1	7	112	0.00	29.805 
17:05	78.6	78.6	80.1	57	62.1	2	5	270	0.00	29.805 
17:10	78.5	78.5	80.0	58	62.5	2	6	270	0.00	29.805 
17:15	78.5	78.5	80.0	57	62.0	1	7	248	0.00	29.806 
17:20	78.3	78.3	79.8	57	61.8	2	7	270	0.00	29.806 
17:25	78.3	78.3	79.8	57	61.8	1	5	270	0.00	29.806 
17:30	78.3	78.3	79.8	57	61.8	1	4	292	0.00	29.808 
17:35	78.3	78.3	79.8	57	61.8	1	2	292	0.00	29.808 
17:40	78.1	78.1	79.6	57	61.6	1	4	292	0.00	29.808 
17:45	77.9	77.9	79.5	57	61.4	1	3	292	0.00	29.805 
17:50	77.7	77.7	79.3	58	61.7	1	3	270	0.00	29.805 
17:55	77.6	77.6	79.2	57	61.1	1	5	270	0.00	29.805 
18:00	77.6	77.6	79.2	58	61.6	0	3	270	0.00	29.804 
18:05	77.4	77.4	79.1	58	61.4	1	4	270	0.00	29.804 
18:10	77.4	77.4	79.1	58	61.4	1	4	270	0.00	29.804 
18:15	77.2	77.2	78.9	58	61.3	1	6	270	0.00	29.803 
18:20	77.2	77.2	78.9	58	61.3	1	6	315	0.00	29.803 
18:25	77.2	77.2	78.9	58	61.3	1	3	248	0.00	29.803 
18:30	77.2	77.2	78.9	59	61.7	1	3	248	0.00	29.836 
18:35	77.0	77.0	78.8	60	62.0	2	6	248	0.00	29.836 
18:40	75.1	75.1	77.5	58	59.3	7	17	292	0.00	29.836 
18:45	71.6	71.6	71.6	68	60.5	4	12	270	0.00	29.888 
18:50	69.1	69.1	69.1	77	61.6	2	5	292	0.02	29.888 
18:55	67.3	67.3	67.3	83	62.0	3	7	292	0.02	29.888 
19:00	66.3	66.3	66.3	86	62.0	2	5	270	0.01	29.892 
19:05	66.0	66.0	66.0	88	62.3	1	4	270	0.08	29.892 
19:10	65.6	65.6	65.6	89	62.3	2	6	270	0.08	29.892 
19:15	65.3	65.3	65.3	90	62.3	0	4	270	0.06	29.880 
19:20	65.2	65.2	65.2	91	62.5	0	1	270	0.03	29.880 
19:25	65.2	65.2	65.2	92	62.8	0	1	270	0.02	29.880 
19:30	65.2	65.2	65.2	92	62.8	0	1	270	0.01	29.856 
19:35	65.2	65.2	65.2	92	62.8	0	1	270	0.00	29.856 
19:40	65.2	65.2	65.2	92	62.8	0	1	248	0.01	29.856 
19:45	65.2	65.2	65.2	93	63.1	0	1	248	0.01	29.846 
19:50	65.2	65.2	65.2	93	63.1	0	2	248	0.00	29.846 
19:55	65.3	65.3	65.3	93	63.2	0	3	248	0.01	29.846 
20:00	65.3	65.3	65.3	93	63.2	0	2	225	0.01	29.844 
20:05	65.3	65.3	65.3	94	63.5	0	1	225	0.01	29.844 
20:10	65.2	65.2	65.2	94	63.4	0	2	225	0.00	29.844 
20:15	65.2	65.2	65.2	94	63.4	0	1	225	0.01	29.849 
20:20	65.2	65.2	65.2	94	63.4	0	1	225	0.01	29.849 
20:25	65.2	65.2	65.2	94	63.4	0	1	225	0.01	29.849 
20:30	65.2	65.2	65.2	94	63.4	0	2	225	0.01	29.856 
20:35	65.2	65.2	65.2	94	63.4	0	2	225	0.01	29.856 
20:40	65.2	65.2	65.2	94	63.4	0	1	225	0.00	29.856 
20:45	65.2	65.2	65.2	95	63.7	0	3	225	0.01	29.855 
20:50	65.3	65.3	65.3	95	63.8	0	2	315	0.00	29.855 
20:55	65.3	65.3	65.3	95	63.8	0	2	315	0.01	29.855 
21:00	65.3	65.3	65.3	95	63.8	0	1	292	0.00	29.846 
21:05	65.2	65.2	65.2	95	63.7	0	2	248	0.00	29.846 
21:10	65.2	65.2	65.2	95	63.7	0	1	248	0.00	29.846 
21:15	65.0	65.0	65.0	95	63.5	0	2	248	0.00	29.838 
21:20	65.0	65.0	65.0	95	63.5	0	1	248	0.00	29.838 
21:25	64.8	64.8	64.8	95	63.3	0	1	248	0.00	29.838 
21:30	64.8	64.8	64.8	95	63.3	0	1	248	0.00	29.833 
21:35	64.8	64.8	64.8	95	63.3	0	2	248	0.00	29.833 
21:40	64.7	64.7	64.7	95	63.2	0	1	248	0.00	29.833 
21:45	64.7	64.7	64.7	95	63.2	0	1	248	0.00	29.826 
21:50	64.5	64.5	64.5	95	63.0	0	1	248	0.00	29.826 
21:55	64.3	64.3	64.3	95	62.8	0	1	248	0.00	29.826 
22:00	64.3	64.3	64.3	95	62.8	0	1	248	0.00	29.825 
22:05	64.2	64.2	64.2	95	62.7	0	1	248	0.00	29.825 
22:10	64.2	64.2	64.2	95	62.7	0	1	248	0.00	29.825 
22:15	64.2	64.2	64.2	95	62.7	0	1	248	0.00	29.822 
22:20	64.2	64.2	64.2	95	62.7	0	1	248	0.00	29.822 
22:25	64.0	64.0	64.0	95	62.5	0	1	248	0.00	29.822 
22:30	64.0	64.0	64.0	95	62.5	0	1	248	0.00	29.818 
22:35	64.0	64.0	64.0	95	62.5	0	2	248	0.00	29.818 
22:40	64.0	64.0	64.0	95	62.5	0	1	248	0.00	29.818 
22:45	64.0	64.0	64.0	95	62.5	0	1	248	0.00	29.803 
22:50	64.2	64.2	64.2	95	62.7	0	1	248	0.00	29.803 
22:55	64.2	64.2	64.2	96	63.0	0	2	248	0.00	29.803 
23:00	64.3	64.3	64.3	95	62.8	0	1	248	0.00	29.803 
23:05	64.5	64.5	64.5	96	63.3	0	2	248	0.00	29.803 
23:10	64.7	64.7	64.7	95	63.2	0	1	248	0.00	29.803 
23:15	64.7	64.7	64.7	95	63.2	0	1	248	0.00	29.799 
23:20	64.8	64.8	64.8	95	63.3	0	1	248	0.00	29.799 
23:25	64.8	64.8	64.8	96	63.6	0	1	248	0.00	29.799 
23:30	64.8	64.8	64.8	96	63.6	0	1	248	0.00	29.798 
23:35	65.0	65.0	65.0	96	63.8	0	1	248	0.00	29.798 
23:40	65.0	65.0	65.0	96	63.8	0	1	248	0.00	29.798 
23:45	65.0	65.0	65.0	96	63.8	0	0	---	0.00	29.795 
23:50	65.0	65.0	65.0	96	63.8	0	1	248	0.00	29.795 
23:55	65.2	65.2	65.2	96	64.0	0	0	---	0.04	29.795 

CoCoRaHS
IN-AL-39
A2 Web Hosting
Creative Commons License
GoDaddy
search engine by freefind advanced

loaded 2018-11-12 19:49:56 • last modified 2010-11-18 10:43:29
Privacy PolicyDisclaimer
• wx.awcolley.com is powered by PmWiki v.2002016 •
• all content (unless otherwise noted) © 2018 A W Colley